Aviation Digital Data Service (ADDS)

Output produced by METARs form (1027 UTC 23 March 2017)
found at http://aviationweather.gov/adds/metars/
 
KBTV 230528Z 2306/2406 34005KT P6SM SKC 
     FM231500 33009KT P6SM SKC 
     FM232200 30005KT P6SM FEW200 
     FM240400 17004KT P6SM BKN150